AXM5143 WBGG-WMKJ
Flight info
| Callsign | AXM5143 |
|---|---|
| Flight time | 1h 7m |
| Altitude | 38000 |
| Route | MOXUN1D MOXUN DCT ATETI G580 HOSBA W401 OMKOM OMKOM1E |
| Aircraft | A320/M-SDE3FGHIRWY/LB1 |
Departure
| Time | 2026-04-28 12:10 |
|---|---|
| Airport | Kuching International Airport (WBGG) |
Arrival
| Time | 2026-04-28 13:17 |
|---|---|
| Airport | Senai International Airport (WMKJ) |
| Time | Latitude | Longitude | Altitude | Speed | Heading |
|---|---|---|---|---|---|
| 2026-04-28 11:26 | 1.48626 | 110.34184 | 78 ft | 0 kts | 338° |
| 2026-04-28 12:01 | 1.48606 | 110.34191 | 70 ft | 4 kts | 348° |
| 2026-04-28 12:01 | 1.48579 | 110.34193 | 69 ft | 4 kts | 10° |
| 2026-04-28 12:01 | 1.48556 | 110.34184 | 72 ft | 4 kts | 48° |
| 2026-04-28 12:01 | 1.48548 | 110.34174 | 72 ft | 0 kts | 66° |
| 2026-04-28 12:04 | 1.48554 | 110.34185 | 72 ft | 6 kts | 61° |
| 2026-04-28 12:04 | 1.48583 | 110.34251 | 73 ft | 15 kts | 67° |
| 2026-04-28 12:04 | 1.48632 | 110.34377 | 76 ft | 24 kts | 68° |
| 2026-04-28 12:05 | 1.48672 | 110.34480 | 75 ft | 15 kts | 68° |
| 2026-04-28 12:05 | 1.48669 | 110.34580 | 74 ft | 14 kts | 137° |
| 2026-04-28 12:05 | 1.48681 | 110.34685 | 72 ft | 18 kts | 64° |
| 2026-04-28 12:05 | 1.48734 | 110.34832 | 70 ft | 27 kts | 68° |
| 2026-04-28 12:06 | 1.48814 | 110.35033 | 69 ft | 32 kts | 68° |
| 2026-04-28 12:06 | 1.48894 | 110.35218 | 67 ft | 25 kts | 67° |
| 2026-04-28 12:06 | 1.48957 | 110.35384 | 63 ft | 24 kts | 68° |
| 2026-04-28 12:06 | 1.49012 | 110.35526 | 58 ft | 27 kts | 69° |
| 2026-04-28 12:07 | 1.49095 | 110.35738 | 54 ft | 38 kts | 68° |
| 2026-04-28 12:07 | 1.49186 | 110.35964 | 54 ft | 30 kts | 68° |
| 2026-04-28 12:07 | 1.49277 | 110.36189 | 53 ft | 39 kts | 68° |
| 2026-04-28 12:07 | 1.49371 | 110.36426 | 48 ft | 38 kts | 68° |
| 2026-04-28 12:08 | 1.49457 | 110.36637 | 49 ft | 31 kts | 68° |
| 2026-04-28 12:08 | 1.49485 | 110.36739 | 51 ft | 10 kts | 91° |
| 2026-04-28 12:08 | 1.49442 | 110.36789 | 51 ft | 0 kts | 151° |
| 2026-04-28 12:08 | 1.49438 | 110.36791 | 48 ft | 0 kts | 154° |
| 2026-04-28 12:09 | 1.49403 | 110.36806 | 49 ft | 12 kts | 158° |
| 2026-04-28 12:09 | 1.49329 | 110.36790 | 51 ft | 11 kts | 244° |
| 2026-04-28 12:10 | 1.49315 | 110.36756 | 51 ft | 15 kts | 248° |
| 2026-04-28 12:10 | 1.49149 | 110.36351 | 49 ft | 108 kts | 249° |
| 2026-04-28 12:10 | 1.48777 | 110.35425 | 111 ft | 172 kts | 245° |
| 2026-04-28 12:10 | 1.48302 | 110.34310 | 957 ft | 177 kts | 248° |
| 2026-04-28 12:11 | 1.47824 | 110.33148 | 1810 ft | 189 kts | 249° |
| 2026-04-28 12:11 | 1.47301 | 110.31853 | 2435 ft | 213 kts | 248° |
| 2026-04-28 12:11 | 1.46729 | 110.30439 | 3063 ft | 224 kts | 248° |
| 2026-04-28 12:11 | 1.46115 | 110.28928 | 3480 ft | 243 kts | 248° |
| 2026-04-28 12:12 | 1.45470 | 110.27347 | 4193 ft | 248 kts | 247° |
| 2026-04-28 12:12 | 1.44812 | 110.25740 | 4970 ft | 252 kts | 247° |
| 2026-04-28 12:12 | 1.44140 | 110.24102 | 5699 ft | 257 kts | 247° |
| 2026-04-28 12:12 | 1.43455 | 110.22435 | 6423 ft | 262 kts | 247° |
| 2026-04-28 12:13 | 1.42759 | 110.20743 | 7145 ft | 265 kts | 248° |
| 2026-04-28 12:13 | 1.42057 | 110.19031 | 7882 ft | 268 kts | 248° |
| 2026-04-28 12:13 | 1.41378 | 110.17286 | 8588 ft | 272 kts | 255° |
| 2026-04-28 12:13 | 1.41279 | 110.15402 | 9255 ft | 275 kts | 279° |
| 2026-04-28 12:14 | 1.41496 | 110.13489 | 9942 ft | 279 kts | 273° |
| 2026-04-28 12:14 | 1.41506 | 110.11542 | 10587 ft | 282 kts | 269° |
| 2026-04-28 12:14 | 1.41432 | 110.09571 | 11217 ft | 285 kts | 268° |
| 2026-04-28 12:14 | 1.41350 | 110.07584 | 11863 ft | 288 kts | 269° |
| 2026-04-28 12:15 | 1.41288 | 110.05572 | 12492 ft | 291 kts | 269° |
| 2026-04-28 12:15 | 1.41250 | 110.03541 | 13119 ft | 294 kts | 270° |
| 2026-04-28 12:15 | 1.41235 | 110.02181 | 13532 ft | 296 kts | 270° |
| 2026-04-28 12:15 | 1.41223 | 109.99409 | 14270 ft | 300 kts | 271° |
| 2026-04-28 12:16 | 1.41223 | 109.98022 | 14626 ft | 302 kts | 271° |
| 2026-04-28 12:16 | 1.41226 | 109.95908 | 15155 ft | 306 kts | 271° |
| 2026-04-28 12:16 | 1.41231 | 109.93048 | 15860 ft | 310 kts | 271° |
| 2026-04-28 12:16 | 1.41234 | 109.91617 | 16214 ft | 312 kts | 271° |
| 2026-04-28 12:17 | 1.41240 | 109.89440 | 16735 ft | 315 kts | 271° |
| 2026-04-28 12:17 | 1.41247 | 109.87238 | 17255 ft | 318 kts | 271° |
| 2026-04-28 12:17 | 1.41253 | 109.85018 | 17769 ft | 321 kts | 271° |
| 2026-04-28 12:17 | 1.41259 | 109.82776 | 18260 ft | 324 kts | 271° |
| 2026-04-28 12:18 | 1.41261 | 109.80513 | 18702 ft | 327 kts | 271° |
| 2026-04-28 12:18 | 1.41262 | 109.78231 | 19138 ft | 329 kts | 270° |
| 2026-04-28 12:18 | 1.41266 | 109.75937 | 19579 ft | 332 kts | 270° |
| 2026-04-28 12:18 | 1.41271 | 109.73622 | 20022 ft | 334 kts | 270° |
| 2026-04-28 12:19 | 1.41274 | 109.71292 | 20459 ft | 336 kts | 270° |
| 2026-04-28 12:19 | 1.41277 | 109.68951 | 20896 ft | 338 kts | 270° |
| 2026-04-28 12:19 | 1.41278 | 109.66589 | 21335 ft | 340 kts | 270° |
| 2026-04-28 12:19 | 1.41280 | 109.64216 | 21760 ft | 343 kts | 270° |
| 2026-04-28 12:20 | 1.41281 | 109.61825 | 22166 ft | 347 kts | 270° |
| 2026-04-28 12:20 | 1.41285 | 109.59368 | 22310 ft | 361 kts | 270° |
| 2026-04-28 12:20 | 1.41291 | 109.56810 | 22438 ft | 375 kts | 270° |
| 2026-04-28 12:20 | 1.41297 | 109.54158 | 22572 ft | 388 kts | 270° |
| 2026-04-28 12:21 | 1.41301 | 109.51415 | 22700 ft | 401 kts | 270° |
| 2026-04-28 12:21 | 1.41304 | 109.48587 | 22831 ft | 413 kts | 270° |
| 2026-04-28 12:21 | 1.41307 | 109.45689 | 23094 ft | 420 kts | 270° |
| 2026-04-28 12:21 | 1.41311 | 109.42759 | 23489 ft | 423 kts | 270° |
| 2026-04-28 12:22 | 1.41314 | 109.39812 | 23839 ft | 426 kts | 270° |
| 2026-04-28 12:22 | 1.41318 | 109.36844 | 24189 ft | 428 kts | 270° |
| 2026-04-28 12:22 | 1.41320 | 109.33863 | 24535 ft | 430 kts | 270° |
| 2026-04-28 12:22 | 1.41322 | 109.30865 | 24884 ft | 433 kts | 270° |
| 2026-04-28 12:23 | 1.41325 | 109.27852 | 25227 ft | 435 kts | 270° |
| 2026-04-28 12:23 | 1.41327 | 109.24824 | 25566 ft | 437 kts | 270° |
| 2026-04-28 12:23 | 1.41332 | 109.21777 | 25905 ft | 440 kts | 270° |
| 2026-04-28 12:23 | 1.41335 | 109.18716 | 26241 ft | 442 kts | 270° |
| 2026-04-28 12:24 | 1.41335 | 109.15636 | 26576 ft | 444 kts | 270° |
| 2026-04-28 12:24 | 1.41337 | 109.12545 | 26899 ft | 446 kts | 270° |
| 2026-04-28 12:24 | 1.41342 | 109.09433 | 27236 ft | 448 kts | 270° |
| 2026-04-28 12:24 | 1.41348 | 109.06311 | 27562 ft | 450 kts | 270° |
| 2026-04-28 12:25 | 1.41353 | 109.03178 | 27880 ft | 452 kts | 270° |
| 2026-04-28 12:25 | 1.41357 | 109.00030 | 28195 ft | 454 kts | 270° |
| 2026-04-28 12:25 | 1.41362 | 108.96865 | 28504 ft | 456 kts | 270° |
| 2026-04-28 12:25 | 1.41367 | 108.93690 | 28809 ft | 458 kts | 270° |
| 2026-04-28 12:26 | 1.41369 | 108.90497 | 29117 ft | 461 kts | 270° |
| 2026-04-28 12:26 | 1.41372 | 108.87289 | 29421 ft | 463 kts | 270° |
| 2026-04-28 12:26 | 1.41375 | 108.84113 | 29716 ft | 465 kts | 270° |
| 2026-04-28 12:26 | 1.41380 | 108.80876 | 29996 ft | 467 kts | 270° |
| 2026-04-28 12:27 | 1.41384 | 108.77628 | 30241 ft | 469 kts | 269° |
| 2026-04-28 12:27 | 1.41389 | 108.74365 | 30487 ft | 470 kts | 269° |
| 2026-04-28 12:27 | 1.41395 | 108.71093 | 30728 ft | 472 kts | 270° |
| 2026-04-28 12:27 | 1.41399 | 108.67810 | 30959 ft | 474 kts | 270° |
| 2026-04-28 12:28 | 1.41400 | 108.64514 | 31186 ft | 475 kts | 270° |
| 2026-04-28 12:28 | 1.41401 | 108.61199 | 31412 ft | 477 kts | 270° |
| 2026-04-28 12:28 | 1.41402 | 108.57880 | 31685 ft | 477 kts | 270° |
| 2026-04-28 12:28 | 1.41402 | 108.54566 | 32047 ft | 476 kts | 270° |
| 2026-04-28 12:29 | 1.41403 | 108.47962 | 32711 ft | 475 kts | 270° |
| 2026-04-28 12:29 | 1.41406 | 108.44667 | 33039 ft | 474 kts | 270° |
| 2026-04-28 12:29 | 1.41409 | 108.41375 | 33386 ft | 473 kts | 270° |
| 2026-04-28 12:30 | 1.41411 | 108.38089 | 33741 ft | 472 kts | 270° |
| 2026-04-28 12:30 | 1.41414 | 108.34804 | 33953 ft | 472 kts | 270° |
| 2026-04-28 12:30 | 1.41417 | 108.31542 | 34003 ft | 464 kts | 270° |
| 2026-04-28 12:31 | 1.41428 | 108.25177 | 34007 ft | 455 kts | 270° |
| 2026-04-28 12:31 | 1.41436 | 108.18860 | 34007 ft | 454 kts | 270° |
| 2026-04-28 12:32 | 1.41438 | 108.12547 | 34007 ft | 454 kts | 270° |
| 2026-04-28 12:32 | 1.41439 | 108.06241 | 34007 ft | 454 kts | 270° |
| 2026-04-28 12:33 | 1.41449 | 107.99933 | 34009 ft | 454 kts | 270° |
| 2026-04-28 12:33 | 1.41385 | 107.93629 | 34008 ft | 454 kts | 269° |
| 2026-04-28 12:34 | 1.41208 | 107.87319 | 34005 ft | 454 kts | 268° |
| 2026-04-28 12:34 | 1.41021 | 107.81018 | 34007 ft | 454 kts | 269° |
| 2026-04-28 12:35 | 1.40862 | 107.74715 | 34004 ft | 454 kts | 269° |
| 2026-04-28 12:35 | 1.40722 | 107.68454 | 33997 ft | 454 kts | 269° |
| 2026-04-28 12:36 | 1.40578 | 107.62140 | 33863 ft | 453 kts | 269° |
| 2026-04-28 12:36 | 1.40433 | 107.55864 | 33843 ft | 452 kts | 269° |
| 2026-04-28 12:37 | 1.40284 | 107.49584 | 33843 ft | 453 kts | 269° |
| 2026-04-28 12:37 | 1.40137 | 107.43289 | 33841 ft | 454 kts | 269° |
| 2026-04-28 12:38 | 1.39985 | 107.36981 | 33843 ft | 454 kts | 269° |
| 2026-04-28 12:38 | 1.39837 | 107.30665 | 33843 ft | 455 kts | 269° |
| 2026-04-28 12:39 | 1.39685 | 107.24338 | 33846 ft | 456 kts | 269° |
| 2026-04-28 12:39 | 1.39538 | 107.18007 | 33848 ft | 456 kts | 269° |
| 2026-04-28 12:40 | 1.39386 | 107.11667 | 33851 ft | 457 kts | 269° |
| 2026-04-28 12:40 | 1.39231 | 107.05320 | 33856 ft | 457 kts | 269° |
| 2026-04-28 12:41 | 1.39074 | 106.98973 | 33856 ft | 457 kts | 269° |
| 2026-04-28 12:41 | 1.38926 | 106.92619 | 33857 ft | 458 kts | 269° |
| 2026-04-28 12:42 | 1.38778 | 106.86259 | 33859 ft | 458 kts | 269° |
| 2026-04-28 12:42 | 1.38628 | 106.79890 | 33861 ft | 458 kts | 269° |
| 2026-04-28 12:43 | 1.38472 | 106.73522 | 33859 ft | 458 kts | 269° |
| 2026-04-28 12:43 | 1.38333 | 106.67155 | 33862 ft | 458 kts | 269° |
| 2026-04-28 12:44 | 1.38197 | 106.60783 | 33852 ft | 459 kts | 269° |
| 2026-04-28 12:44 | 1.38054 | 106.54402 | 33851 ft | 459 kts | 269° |
| 2026-04-28 12:45 | 1.37913 | 106.48018 | 33852 ft | 460 kts | 269° |
| 2026-04-28 12:45 | 1.37773 | 106.41632 | 33852 ft | 460 kts | 269° |
| 2026-04-28 12:46 | 1.37626 | 106.35248 | 33853 ft | 460 kts | 269° |
| 2026-04-28 12:46 | 1.37491 | 106.28858 | 33849 ft | 460 kts | 269° |
| 2026-04-28 12:47 | 1.37348 | 106.22456 | 33850 ft | 461 kts | 269° |
| 2026-04-28 12:47 | 1.37198 | 106.16047 | 33852 ft | 461 kts | 269° |
| 2026-04-28 12:48 | 1.37052 | 106.09778 | 33856 ft | 462 kts | 269° |
| 2026-04-28 12:48 | 1.36898 | 106.03360 | 33860 ft | 462 kts | 269° |
| 2026-04-28 12:49 | 1.36740 | 105.96979 | 33865 ft | 462 kts | 268° |
| 2026-04-28 12:49 | 1.36580 | 105.90557 | 33867 ft | 462 kts | 268° |
| 2026-04-28 12:50 | 1.36428 | 105.84098 | 33865 ft | 462 kts | 268° |
| 2026-04-28 12:50 | 1.36284 | 105.77726 | 33869 ft | 461 kts | 268° |
| 2026-04-28 12:51 | 1.36130 | 105.71316 | 33871 ft | 461 kts | 268° |
| 2026-04-28 12:51 | 1.35976 | 105.64907 | 33867 ft | 461 kts | 269° |
| 2026-04-28 12:52 | 1.35830 | 105.58506 | 33873 ft | 460 kts | 268° |
| 2026-04-28 12:52 | 1.35675 | 105.52120 | 33874 ft | 459 kts | 268° |
| 2026-04-28 12:53 | 1.35521 | 105.45744 | 33871 ft | 458 kts | 268° |
| 2026-04-28 12:53 | 1.35367 | 105.39378 | 33868 ft | 458 kts | 268° |
| 2026-04-28 12:54 | 1.35217 | 105.33014 | 33864 ft | 458 kts | 268° |
| 2026-04-28 12:54 | 1.35067 | 105.26818 | 33814 ft | 455 kts | 268° |
| 2026-04-28 12:54 | 1.34991 | 105.23676 | 33457 ft | 448 kts | 268° |
| 2026-04-28 12:55 | 1.34921 | 105.20592 | 33134 ft | 441 kts | 268° |
| 2026-04-28 12:55 | 1.34852 | 105.17550 | 32717 ft | 436 kts | 268° |
| 2026-04-28 12:55 | 1.34780 | 105.14532 | 32297 ft | 433 kts | 268° |
| 2026-04-28 12:55 | 1.34707 | 105.11541 | 31887 ft | 429 kts | 268° |
| 2026-04-28 12:56 | 1.34630 | 105.08569 | 31483 ft | 425 kts | 268° |
| 2026-04-28 12:56 | 1.34555 | 105.05630 | 31081 ft | 421 kts | 268° |
| 2026-04-28 12:56 | 1.34483 | 105.02717 | 30691 ft | 418 kts | 268° |
| 2026-04-28 12:56 | 1.34414 | 104.99829 | 30302 ft | 414 kts | 268° |
| 2026-04-28 12:57 | 1.34349 | 104.96962 | 29909 ft | 411 kts | 268° |
| 2026-04-28 12:57 | 1.34285 | 104.94120 | 29469 ft | 407 kts | 268° |
| 2026-04-28 12:57 | 1.34218 | 104.91303 | 29022 ft | 404 kts | 268° |
| 2026-04-28 12:57 | 1.34150 | 104.88508 | 28590 ft | 401 kts | 268° |
| 2026-04-28 12:58 | 1.34084 | 104.85731 | 28152 ft | 398 kts | 268° |
| 2026-04-28 12:58 | 1.34019 | 104.82978 | 27724 ft | 395 kts | 268° |
| 2026-04-28 12:58 | 1.33954 | 104.80242 | 27308 ft | 392 kts | 268° |
| 2026-04-28 12:58 | 1.33888 | 104.77525 | 26896 ft | 390 kts | 268° |
| 2026-04-28 12:59 | 1.33822 | 104.74826 | 26491 ft | 387 kts | 268° |
| 2026-04-28 12:59 | 1.33756 | 104.72144 | 26090 ft | 385 kts | 268° |
| 2026-04-28 12:59 | 1.33692 | 104.69474 | 25695 ft | 383 kts | 268° |
| 2026-04-28 12:59 | 1.33628 | 104.66829 | 25306 ft | 380 kts | 268° |
| 2026-04-28 13:00 | 1.33564 | 104.64193 | 24918 ft | 378 kts | 268° |
| 2026-04-28 13:00 | 1.33500 | 104.61573 | 24540 ft | 376 kts | 268° |
| 2026-04-28 13:00 | 1.33438 | 104.58967 | 24164 ft | 374 kts | 268° |
| 2026-04-28 13:00 | 1.33375 | 104.56378 | 23797 ft | 372 kts | 268° |
| 2026-04-28 13:01 | 1.33310 | 104.53799 | 23430 ft | 370 kts | 268° |
| 2026-04-28 13:01 | 1.33267 | 104.52102 | 23141 ft | 368 kts | 268° |
| 2026-04-28 13:01 | 1.33203 | 104.49553 | 22706 ft | 366 kts | 268° |
| 2026-04-28 13:01 | 1.33144 | 104.47021 | 22277 ft | 363 kts | 269° |
| 2026-04-28 13:02 | 1.33089 | 104.44507 | 21851 ft | 361 kts | 269° |
| 2026-04-28 13:02 | 1.33088 | 104.42003 | 21431 ft | 359 kts | 275° |
| 2026-04-28 13:02 | 1.33536 | 104.39564 | 21025 ft | 356 kts | 288° |
| 2026-04-28 13:02 | 1.34459 | 104.37277 | 20619 ft | 354 kts | 295° |
| 2026-04-28 13:03 | 1.35474 | 104.35058 | 20382 ft | 347 kts | 295° |
| 2026-04-28 13:03 | 1.36467 | 104.32876 | 20087 ft | 343 kts | 295° |
| 2026-04-28 13:03 | 1.37449 | 104.30713 | 19756 ft | 341 kts | 295° |
| 2026-04-28 13:03 | 1.38424 | 104.28561 | 19417 ft | 339 kts | 295° |
| 2026-04-28 13:04 | 1.39388 | 104.26422 | 19089 ft | 337 kts | 295° |
| 2026-04-28 13:04 | 1.40347 | 104.24293 | 18764 ft | 335 kts | 295° |
| 2026-04-28 13:04 | 1.41307 | 104.22175 | 18444 ft | 334 kts | 295° |
| 2026-04-28 13:04 | 1.42265 | 104.20071 | 18132 ft | 332 kts | 295° |
| 2026-04-28 13:05 | 1.43219 | 104.17974 | 17778 ft | 330 kts | 295° |
| 2026-04-28 13:05 | 1.44165 | 104.15891 | 17430 ft | 328 kts | 295° |
| 2026-04-28 13:05 | 1.45108 | 104.13820 | 17095 ft | 327 kts | 295° |
| 2026-04-28 13:05 | 1.46046 | 104.11758 | 16775 ft | 325 kts | 295° |
| 2026-04-28 13:06 | 1.46976 | 104.09711 | 16443 ft | 323 kts | 295° |
| 2026-04-28 13:06 | 1.47902 | 104.07673 | 16140 ft | 321 kts | 295° |
| 2026-04-28 13:06 | 1.48823 | 104.05642 | 15824 ft | 319 kts | 295° |
| 2026-04-28 13:06 | 1.49738 | 104.03625 | 15534 ft | 318 kts | 295° |
| 2026-04-28 13:07 | 1.50648 | 104.01620 | 15239 ft | 316 kts | 295° |
| 2026-04-28 13:07 | 1.51585 | 103.99640 | 14945 ft | 314 kts | 301° |
| 2026-04-28 13:07 | 1.52864 | 103.97894 | 14661 ft | 311 kts | 315° |
| 2026-04-28 13:07 | 1.54457 | 103.96426 | 14133 ft | 317 kts | 319° |
| 2026-04-28 13:08 | 1.56113 | 103.94949 | 13827 ft | 316 kts | 319° |
| 2026-04-28 13:08 | 1.57717 | 103.93521 | 13700 ft | 309 kts | 319° |
| 2026-04-28 13:08 | 1.59309 | 103.92103 | 13451 ft | 305 kts | 319° |
| 2026-04-28 13:08 | 1.60889 | 103.90696 | 13140 ft | 303 kts | 319° |
| 2026-04-28 13:09 | 1.62458 | 103.89297 | 12832 ft | 302 kts | 319° |
| 2026-04-28 13:09 | 1.64048 | 103.87879 | 12122 ft | 314 kts | 319° |
| 2026-04-28 13:09 | 1.65719 | 103.86388 | 11305 ft | 329 kts | 319° |
| 2026-04-28 13:09 | 1.67454 | 103.84835 | 10457 ft | 342 kts | 319° |
| 2026-04-28 13:10 | 1.69259 | 103.83222 | 9620 ft | 353 kts | 319° |
| 2026-04-28 13:10 | 1.71116 | 103.81563 | 8662 ft | 363 kts | 319° |
| 2026-04-28 13:10 | 1.73019 | 103.79862 | 7724 ft | 370 kts | 319° |
| 2026-04-28 13:10 | 1.74925 | 103.78157 | 7265 ft | 363 kts | 319° |
| 2026-04-28 13:11 | 1.76763 | 103.76512 | 7090 ft | 346 kts | 319° |
| 2026-04-28 13:11 | 1.78514 | 103.74944 | 7018 ft | 328 kts | 319° |
| 2026-04-28 13:11 | 1.80163 | 103.73469 | 7030 ft | 309 kts | 319° |
| 2026-04-28 13:11 | 1.81716 | 103.72083 | 7032 ft | 291 kts | 319° |
| 2026-04-28 13:12 | 1.83181 | 103.70776 | 7012 ft | 274 kts | 319° |
| 2026-04-28 13:12 | 1.84544 | 103.69460 | 6619 ft | 275 kts | 307° |
| 2026-04-28 13:12 | 1.85266 | 103.67693 | 6019 ft | 283 kts | 277° |
| 2026-04-28 13:12 | 1.85403 | 103.65692 | 5275 ft | 294 kts | 272° |
| 2026-04-28 13:13 | 1.85488 | 103.63567 | 4502 ft | 324 kts | 271° |
| 2026-04-28 13:13 | 1.85190 | 103.61324 | 3657 ft | 331 kts | 248° |
| 2026-04-28 13:13 | 1.83845 | 103.59534 | 3302 ft | 312 kts | 215° |
| 2026-04-28 13:13 | 1.81977 | 103.58789 | 3225 ft | 276 kts | 182° |
| 2026-04-28 13:14 | 1.80231 | 103.59158 | 3187 ft | 245 kts | 148° |
| 2026-04-28 13:14 | 1.79056 | 103.60270 | 2989 ft | 228 kts | 129° |
| 2026-04-28 13:14 | 1.78026 | 103.61439 | 2658 ft | 221 kts | 137° |
| 2026-04-28 13:14 | 1.76750 | 103.62257 | 2384 ft | 215 kts | 153° |
| 2026-04-28 13:15 | 1.75387 | 103.62814 | 2125 ft | 211 kts | 158° |
| 2026-04-28 13:15 | 1.74029 | 103.63311 | 1871 ft | 203 kts | 158° |
| 2026-04-28 13:15 | 1.72771 | 103.63766 | 1616 ft | 183 kts | 156° |
| 2026-04-28 13:15 | 1.71623 | 103.64183 | 1342 ft | 171 kts | 157° |
| 2026-04-28 13:16 | 1.70517 | 103.64587 | 1141 ft | 167 kts | 158° |
| 2026-04-28 13:16 | 1.69424 | 103.64985 | 956 ft | 167 kts | 158° |
| 2026-04-28 13:16 | 1.68348 | 103.65377 | 751 ft | 159 kts | 159° |
| 2026-04-28 13:16 | 1.67336 | 103.65746 | 561 ft | 153 kts | 159° |
| 2026-04-28 13:17 | 1.66355 | 103.66107 | 367 ft | 152 kts | 159° |
| 2026-04-28 13:17 | 1.65365 | 103.66480 | 222 ft | 149 kts | 159° |
| 2026-04-28 13:17 | 1.64486 | 103.66807 | 203 ft | 105 kts | 160° |
| 2026-04-28 13:17 | 1.64133 | 103.66924 | 206 ft | 28 kts | 166° |
| 2026-04-28 13:18 | 1.63956 | 103.66978 | 212 ft | 18 kts | 162° |
| 2026-04-28 13:18 | 1.63835 | 103.67019 | 210 ft | 20 kts | 161° |
| 2026-04-28 13:18 | 1.63741 | 103.67018 | 206 ft | 14 kts | 223° |
| 2026-04-28 13:18 | 1.63716 | 103.66961 | 209 ft | 0 kts | 248° |
| 2026-04-28 13:19 | 1.63714 | 103.66957 | 207 ft | 0 kts | 248° |
| 2026-04-28 13:19 | 1.63712 | 103.66953 | 205 ft | 3 kts | 248° |
| 2026-04-28 13:19 | 1.63691 | 103.66893 | 211 ft | 4 kts | 251° |
| 2026-04-28 13:20 | 1.63679 | 103.66857 | 204 ft | 10 kts | 252° |
| 2026-04-28 13:20 | 1.63670 | 103.66833 | 203 ft | 2 kts | 238° |
| 2026-04-28 13:20 | 1.63647 | 103.66816 | 202 ft | 2 kts | 210° |
| 2026-04-28 13:20 | 1.63629 | 103.66790 | 205 ft | 4 kts | 244° |
| 2026-04-28 13:21 | 1.63616 | 103.66761 | 205 ft | 0 kts | 248° |
| 2026-04-28 13:21 | 1.63612 | 103.66749 | 206 ft | 4 kts | 250° |
| 2026-04-28 13:21 | 1.63608 | 103.66739 | 200 ft | 0 kts | 250° |